Time;durP1;ratioP1;P1;durP2;ratioP2;P2;SDS_P1;SDS_P2;PMS_P1;PMS_P2;Temp;Humidity;BMP_temperature;BMP_pressure;BME280_temperature;BME280_humidity;BME280_pressure;Samples;Min_cycle;Max_cycle;Signal;HPM_P1;HPM_P2
2022/05/03 00:04:51;;;;;;;0.50;0.50;;;;;;;;;;20811466;28;20120;-80
2022/05/03 00:14:55;;;;;;;1.23;0.68;;;;;;;;;;20829558;28;20144;-80
2022/05/03 00:24:58;;;;;;;0.40;0.40;;;;;;;;;;20828511;28;20544;-80
2022/05/03 00:34:59;;;;;;;0.68;0.60;;;;;;;;;;20827761;28;20044;-80
2022/05/03 00:45:26;;;;;;;1.42;0.50;;;;;;;;;;20827348;28;20040;-80
2022/05/03 00:55:31;;;;;;;0.40;0.40;;;;;;;;;;20826482;28;20111;-80
2022/05/03 01:05:39;;;;;;;0.43;0.40;;;;;;;;;;20825572;28;20402;-80
2022/05/03 01:15:44;;;;;;;0.70;0.60;;;;;;;;;;20824670;28;20065;-80
2022/05/03 01:25:55;;;;;;;0.43;0.43;;;;;;;;;;20824168;28;20499;-80
2022/05/03 01:35:58;;;;;;;0.50;0.50;;;;;;;;;;20824008;28;20049;-80
2022/05/03 01:46:14;;;;;;;0.50;0.50;;;;;;;;;;20806267;28;20053;-80
2022/05/03 01:56:29;;;;;;;0.40;0.40;;;;;;;;;;20824954;28;20559;-80
2022/05/03 02:06:43;;;;;;;0.50;0.50;;;;;;;;;;20805235;28;20100;-80
2022/05/03 02:17:01;;;;;;;0.55;0.50;;;;;;;;;;20822356;28;20069;-80
2022/05/03 02:27:03;;;;;;;0.85;0.50;;;;;;;;;;20825858;28;20053;-80
2022/05/03 02:37:37;;;;;;;0.60;0.60;;;;;;;;;;20819314;28;20144;-80
2022/05/03 02:47:41;;;;;;;0.45;0.45;;;;;;;;;;20813559;28;20099;-80
2022/05/03 02:58:03;;;;;;;0.50;0.50;;;;;;;;;;20835523;28;20042;-80
2022/05/03 03:08:05;;;;;;;0.52;0.52;;;;;;;;;;20817424;28;20042;-80
2022/05/03 03:18:12;;;;;;;0.65;0.65;;;;;;;;;;20833764;28;20053;-80
2022/05/03 03:28:17;;;;;;;0.50;0.50;;;;;;;;;;20833210;28;20506;-80
2022/05/03 03:38:20;;;;;;;0.50;0.40;;;;;;;;;;20832332;28;20323;-80
2022/05/03 03:48:22;;;;;;;0.60;0.60;;;;;;;;;;20831771;28;20123;-80
2022/05/03 03:58:24;;;;;;;0.40;0.40;;;;;;;;;;20813647;28;20046;-80
2022/05/03 04:08:25;;;;;;;0.90;0.50;;;;;;;;;;20830204;28;20049;-80
2022/05/03 04:18:44;;;;;;;0.30;0.30;;;;;;;;;;20829267;28;20049;-80
2022/05/03 04:28:45;;;;;;;0.43;0.43;;;;;;;;;;20828679;28;20041;-80
2022/05/03 04:38:48;;;;;;;0.43;0.40;;;;;;;;;;20827890;28;20052;-80
2022/05/03 04:48:49;;;;;;;0.50;0.50;;;;;;;;;;20808670;28;20045;-80
2022/05/03 04:58:55;;;;;;;0.47;0.47;;;;;;;;;;20826535;28;20438;-80
2022/05/03 05:08:56;;;;;;;0.40;0.40;;;;;;;;;;20808108;28;20095;-80
2022/05/03 05:18:58;;;;;;;0.50;0.43;;;;;;;;;;20825022;28;20076;-80
2022/05/03 05:29:00;;;;;;;0.47;0.47;;;;;;;;;;20824294;28;20107;-80
2022/05/03 05:39:02;;;;;;;1.00;0.45;;;;;;;;;;20822849;28;20046;-80
2022/05/03 05:49:04;;;;;;;0.70;0.70;;;;;;;;;;20823197;28;20053;-80
2022/05/03 05:59:06;;;;;;;0.50;0.50;;;;;;;;;;20824022;28;20441;-80
2022/05/03 06:09:08;;;;;;;0.40;0.40;;;;;;;;;;20839616;28;20053;-80
2022/05/03 06:19:11;;;;;;;0.75;0.50;;;;;;;;;;20838715;28;20057;-80
2022/05/03 06:29:12;;;;;;;0.63;0.60;;;;;;;;;;20837967;28;20408;-80
2022/05/03 06:39:14;;;;;;;0.60;0.60;;;;;;;;;;20836802;28;20037;-80
2022/05/03 06:49:16;;;;;;;0.60;0.60;;;;;;;;;;20836253;28;20498;-80
2022/05/03 06:59:18;;;;;;;0.60;0.60;;;;;;;;;;20835654;28;20045;-80
2022/05/03 07:09:19;;;;;;;0.80;0.80;;;;;;;;;;20817255;28;20041;-80
2022/05/03 07:29:42;;;;;;;2.97;1.40;;;;;;;;;;20833670;28;20107;-80
2022/05/03 07:39:44;;;;;;;1.52;1.30;;;;;;;;;;20833001;28;20152;-80
2022/05/03 07:49:45;;;;;;;2.15;1.60;;;;;;;;;;20814197;28;20090;-80
2022/05/03 07:59:48;;;;;;;2.55;1.90;;;;;;;;;;20813326;28;20495;-80
2022/05/03 08:09:50;;;;;;;3.28;1.75;;;;;;;;;;20830038;28;20053;-80
2022/05/03 08:19:53;;;;;;;2.10;1.70;;;;;;;;;;20811741;28;20052;-80
2022/05/03 08:29:55;;;;;;;2.58;2.10;;;;;;;;;;20828427;28;20103;-80
2022/05/03 08:50:19;;;;;;;2.28;1.20;;;;;;;;;;20826794;28;20172;-80
2022/05/03 09:00:21;;;;;;;1.60;1.50;;;;;;;;;;20826246;28;20132;-80
2022/05/03 09:10:31;;;;;;;2.72;1.13;;;;;;;;;;20808075;28;20088;-80
2022/05/03 09:31:36;;;;;;;3.28;1.27;;;;;;;;;;20823129;28;20136;-80
2022/05/03 09:41:38;;;;;;;1.40;1.20;;;;;;;;;;20823419;28;20049;-80
2022/05/03 09:51:40;;;;;;;2.63;1.67;;;;;;;;;;20806057;28;20450;-80
2022/05/03 10:01:42;;;;;;;2.50;1.50;;;;;;;;;;20806950;28;20053;-80
2022/05/03 10:11:46;;;;;;;3.15;1.50;;;;;;;;;;20822205;28;20065;-80
2022/05/03 10:21:49;;;;;;;3.92;2.00;;;;;;;;;;20822552;28;20495;-80
2022/05/03 10:31:59;;;;;;;3.45;1.55;;;;;;;;;;20804981;28;20107;-80
2022/05/03 10:42:09;;;;;;;2.80;1.75;;;;;;;;;;20821512;28;20053;-80
2022/05/03 10:52:15;;;;;;;2.83;1.70;;;;;;;;;;20831409;28;20057;-80
2022/05/03 11:02:19;;;;;;;6.20;2.35;;;;;;;;;;20818367;28;20568;-81
2022/05/03 11:12:40;;;;;;;1.75;1.40;;;;;;;;;;20834756;28;20519;-80
2022/05/03 11:22:45;;;;;;;2.75;1.42;;;;;;;;;;20817398;28;20056;-81
2022/05/03 11:32:46;;;;;;;3.90;1.85;;;;;;;;;;20815716;28;20100;-80
2022/05/03 11:42:49;;;;;;;2.58;1.55;;;;;;;;;;20832703;28;20046;-80
2022/05/03 12:03:12;;;;;;;2.65;1.30;;;;;;;;;;20830592;28;20064;-80
2022/05/03 12:13:17;;;;;;;3.65;1.73;;;;;;;;;;20830121;28;20080;-80
2022/05/03 12:23:19;;;;;;;;;;;;;;;;;;20829632;28;20095;-80
2022/05/03 12:33:24;;;;;;;3.97;1.50;;;;;;;;;;20828685;28;19928;-80
2022/05/03 12:43:26;;;;;;;3.10;1.50;;;;;;;;;;20827626;28;20472;-80
2022/05/03 12:53:29;;;;;;;3.40;1.30;;;;;;;;;;20826857;28;20053;-81
2022/05/03 13:03:31;;;;;;;5.18;1.42;;;;;;;;;;20808575;28;20099;-80
2022/05/03 13:13:33;;;;;;;2.85;1.33;;;;;;;;;;20807445;28;20053;-80
2022/05/03 13:23:35;;;;;;;1.63;1.30;;;;;;;;;;20807329;28;20049;-80
2022/05/03 13:33:37;;;;;;;3.00;1.67;;;;;;;;;;20824505;28;20502;-80
2022/05/03 13:43:52;;;;;;;2.53;1.20;;;;;;;;;;20806078;28;20087;-80
2022/05/03 13:53:54;;;;;;;1.95;1.50;;;;;;;;;;20805852;28;20073;-81
2022/05/03 14:03:59;;;;;;;2.25;1.30;;;;;;;;;;20822908;28;20053;-81
2022/05/03 14:14:00;;;;;;;3.97;1.20;;;;;;;;;;20804886;28;20064;-80
2022/05/03 14:24:02;;;;;;;1.52;1.00;;;;;;;;;;20827623;28;20133;-81
2022/05/03 14:34:05;;;;;;;3.08;1.20;;;;;;;;;;20820753;28;20076;-81
2022/05/03 14:44:07;;;;;;;2.25;1.42;;;;;;;;;;20803343;28;20115;-80
2022/05/03 14:54:09;;;;;;;1.83;1.27;;;;;;;;;;20836331;28;20041;-80
2022/05/03 15:04:11;;;;;;;1.85;1.13;;;;;;;;;;20835519;28;20046;-80
2022/05/03 15:14:12;;;;;;;3.05;1.38;;;;;;;;;;20834188;28;20056;-80
2022/05/03 15:34:36;;;;;;;2.78;1.00;;;;;;;;;;20832748;28;20053;-80
2022/05/03 15:44:38;;;;;;;1.98;1.25;;;;;;;;;;20832516;28;20046;-80
2022/05/03 15:54:40;;;;;;;2.08;1.02;;;;;;;;;;20831655;28;20431;-80
2022/05/03 16:04:41;;;;;;;3.25;1.50;;;;;;;;;;20830972;28;20430;-80
2022/05/03 16:14:43;;;;;;;2.42;1.30;;;;;;;;;;20829838;28;20053;-80
2022/05/03 16:24:46;;;;;;;2.13;1.08;;;;;;;;;;20829321;28;20046;-80
2022/05/03 16:34:48;;;;;;;3.55;1.20;;;;;;;;;;20828618;28;20054;-81
2022/05/03 16:44:52;;;;;;;2.72;0.98;;;;;;;;;;20809546;28;20072;-81
2022/05/03 16:54:54;;;;;;;3.72;1.45;;;;;;;;;;20827299;28;20084;-80
2022/05/03 17:04:56;;;;;;;3.70;1.40;;;;;;;;;;20792331;28;20037;-80
2022/05/03 17:14:58;;;;;;;3.53;0.98;;;;;;;;;;20825793;28;20049;-80
2022/05/03 17:25:00;;;;;;;2.80;1.00;;;;;;;;;;20807544;28;20095;-80
2022/05/03 17:35:02;;;;;;;2.88;1.25;;;;;;;;;;20824344;28;20084;-81
2022/05/03 17:45:04;;;;;;;1.85;1.00;;;;;;;;;;20806425;28;20072;-80
2022/05/03 17:55:07;;;;;;;2.05;0.90;;;;;;;;;;20808364;28;20060;-80
2022/05/03 18:05:11;;;;;;;2.88;1.38;;;;;;;;;;20839883;28;20072;-80
2022/05/03 18:15:13;;;;;;;2.30;0.98;;;;;;;;;;20839127;28;20057;-80
2022/05/03 18:25:17;;;;;;;2.03;0.90;;;;;;;;;;20838597;28;20049;-80
2022/05/03 18:35:20;;;;;;;3.03;1.40;;;;;;;;;;20837870;28;20054;-80
2022/05/03 18:45:22;;;;;;;2.90;1.30;;;;;;;;;;20819735;28;20049;-80
2022/05/03 18:55:43;;;;;;;2.65;1.17;;;;;;;;;;20819214;28;20060;-80
2022/05/03 19:05:45;;;;;;;1.88;1.10;;;;;;;;;;20835428;28;20438;-80
2022/05/03 19:15:47;;;;;;;2.33;1.05;;;;;;;;;;20833593;28;20495;-80
2022/05/03 19:36:10;;;;;;;2.15;1.00;;;;;;;;;;20833199;28;20049;-80
2022/05/03 19:46:12;;;;;;;3.17;1.10;;;;;;;;;;20832464;28;20247;-80
2022/05/03 19:56:14;;;;;;;2.45;1.02;;;;;;;;;;20798406;28;20041;-80
2022/05/03 20:06:15;;;;;;;4.10;1.17;;;;;;;;;;20813071;28;20140;-80
2022/05/03 20:16:17;;;;;;;1.48;0.95;;;;;;;;;;20812470;28;20064;-80
2022/05/03 20:26:19;;;;;;;2.47;0.90;;;;;;;;;;20811709;28;20046;-80
2022/05/03 20:36:21;;;;;;;1.95;0.93;;;;;;;;;;20810901;28;20037;-80
2022/05/03 20:56:43;;;;;;;2.33;0.90;;;;;;;;;;20827248;28;20049;-80
2022/05/03 21:06:45;;;;;;;1.60;1.00;;;;;;;;;;20809342;28;20571;-80
2022/05/03 21:16:47;;;;;;;2.22;0.90;;;;;;;;;;20825415;28;20144;-80
2022/05/03 21:26:49;;;;;;;2.78;0.98;;;;;;;;;;20824766;28;20060;-80
2022/05/03 21:36:52;;;;;;;1.52;1.00;;;;;;;;;;20806737;28;20053;-80
2022/05/03 21:46:53;;;;;;;1.83;0.93;;;;;;;;;;20824170;28;20038;-80
2022/05/03 21:56:55;;;;;;;1.45;0.70;;;;;;;;;;20823835;28;20049;-80
2022/05/03 22:06:57;;;;;;;1.95;0.95;;;;;;;;;;20823287;28;20041;-80
2022/05/03 22:16:59;;;;;;;2.72;1.20;;;;;;;;;;20823065;28;20095;-80
2022/05/03 22:27:00;;;;;;;1.40;0.80;;;;;;;;;;20822300;28;20107;-80
2022/05/03 22:37:02;;;;;;;1.73;0.88;;;;;;;;;;20822283;28;20561;-80
2022/05/03 22:47:06;;;;;;;2.25;0.88;;;;;;;;;;20812252;28;20046;-80
2022/05/03 22:57:08;;;;;;;1.90;0.68;;;;;;;;;;20818840;28;20136;-80
2022/05/03 23:07:10;;;;;;;2.15;0.98;;;;;;;;;;20817822;28;20446;-80
2022/05/03 23:17:12;;;;;;;2.47;0.80;;;;;;;;;;20817199;28;20053;-80
2022/05/03 23:27:14;;;;;;;1.42;0.75;;;;;;;;;;20816442;28;20116;-80
2022/05/03 23:37:16;;;;;;;1.58;0.75;;;;;;;;;;20833661;28;20184;-80
2022/05/03 23:47:18;;;;;;;2.08;0.70;;;;;;;;;;20814874;28;20037;-80
2022/05/03 23:57:20;;;;;;;1.35;0.70;;;;;;;;;;20832841;28;20042;-80
